Time;durP1;ratioP1;P1;durP2;ratioP2;P2;SDS_P1;SDS_P2;PMS_P1;PMS_P2;Temp;Humidity;BMP_temperature;BMP_pressure;BME280_temperature;BME280_humidity;BME280_pressure;Samples;Min_cycle;Max_cycle;Signal;HPM_P1;HPM_P2
2023/12/12 00:00:24;;;;;;;5.63;1.55;;;28.40;99.90;;;;;;5046527;28;20248;-76
2023/12/12 00:02:55;;;;;;;8.00;1.45;;;28.30;99.90;;;;;;5049255;28;20216;-77
2023/12/12 00:05:26;;;;;;;9.93;1.95;;;28.50;99.90;;;;;;5044709;28;20288;-77
2023/12/12 00:07:57;;;;;;;9.52;1.70;;;28.70;99.90;;;;;;5038248;28;20197;-76
2023/12/12 00:10:28;;;;;;;7.88;1.52;;;28.80;99.90;;;;;;5054613;28;20199;-78
2023/12/12 00:12:59;;;;;;;6.85;1.50;;;28.80;99.90;;;;;;5050381;28;20228;-76
2023/12/12 00:15:32;;;;;;;7.18;1.23;;;28.80;99.90;;;;;;5050655;28;20283;-76
2023/12/12 00:18:02;;;;;;;6.15;1.70;;;28.80;99.90;;;;;;5050397;28;20224;-76
2023/12/12 00:20:33;;;;;;;10.18;1.63;;;28.90;99.90;;;;;;5050242;28;20208;-77
2023/12/12 00:23:04;;;;;;;6.80;1.77;;;28.70;99.90;;;;;;5048255;28;20291;-78
2023/12/12 00:25:35;;;;;;;7.20;1.85;;;28.80;99.90;;;;;;5047471;28;20196;-77
2023/12/12 00:28:06;;;;;;;11.15;1.70;;;28.60;99.90;;;;;;5038890;28;20303;-78
2023/12/12 00:30:39;;;;;;;7.00;1.40;;;28.40;99.90;;;;;;5049118;28;20195;-79
2023/12/12 00:33:10;;;;;;;5.95;1.48;;;28.30;99.90;;;;;;5049434;28;20246;-79
2023/12/12 00:35:43;;;;;;;6.68;1.27;;;28.40;99.90;;;;;;5048383;28;20205;-78
2023/12/12 00:38:14;;;;;;;8.63;1.88;;;28.40;99.90;;;;;;5049778;28;20311;-76
2023/12/12 00:40:53;;;;;;;7.13;1.67;;;28.50;99.90;;;;;;5045822;28;20196;-77
2023/12/12 00:43:24;;;;;;;7.25;1.50;;;28.50;99.90;;;;;;5040564;28;20319;-76
2023/12/12 00:45:57;;;;;;;7.88;1.58;;;28.60;99.90;;;;;;5046001;28;20213;-77
2023/12/12 00:48:28;;;;;;;5.95;1.38;;;28.80;99.90;;;;;;5050083;28;20252;-77
2023/12/12 00:50:59;;;;;;;7.22;1.67;;;29.00;99.90;;;;;;5050954;28;20227;-77
2023/12/12 00:53:30;;;;;;;10.60;1.90;;;29.10;99.90;;;;;;5051914;28;20197;-77
2023/12/12 00:56:01;;;;;;;6.90;1.50;;;29.10;99.90;;;;;;5052561;28;20724;-76
2023/12/12 00:58:31;;;;;;;8.93;1.50;;;29.20;99.90;;;;;;5052230;28;20228;-77
2023/12/12 01:01:04;;;;;;;5.70;1.38;;;29.40;99.90;;;;;;5053392;28;20204;-77
2023/12/12 01:03:35;;;;;;;6.57;1.50;;;29.60;99.90;;;;;;5049957;28;20216;-78
2023/12/12 01:06:06;;;;;;;5.55;1.73;;;29.60;99.90;;;;;;5052905;28;20228;-76
2023/12/12 01:08:37;;;;;;;8.07;1.98;;;29.30;99.90;;;;;;5052987;28;20232;-76
2023/12/12 01:11:08;;;;;;;12.32;1.90;;;28.80;99.90;;;;;;5050284;28;20232;-76
2023/12/12 01:13:39;;;;;;;7.15;1.70;;;29.00;99.90;;;;;;5052846;28;20200;-76
2023/12/12 01:16:12;;;;;;;9.50;1.83;;;29.10;99.90;;;;;;5060227;22;20674;-76
2023/12/12 01:18:43;;;;;;;7.65;1.75;;;29.20;99.90;;;;;;5056311;28;20231;-76
2023/12/12 01:21:14;;;;;;;8.27;1.50;;;29.20;99.90;;;;;;5060289;28;20200;-75
2023/12/12 01:23:52;;;;;;;4.53;1.40;;;29.20;99.90;;;;;;5072028;28;20204;-75
2023/12/12 01:26:24;;;;;;;6.30;1.63;;;29.40;99.90;;;;;;5072385;28;20286;-76
2023/12/12 01:28:55;;;;;;;8.15;1.58;;;29.40;99.90;;;;;;5072697;28;20301;-75
2023/12/12 01:31:28;;;;;;;10.15;1.90;;;29.50;99.90;;;;;;5074516;28;20212;-76
2023/12/12 01:33:58;;;;;;;7.72;1.63;;;29.40;99.90;;;;;;5070031;28;20208;-77
2023/12/12 01:36:29;;;;;;;6.30;1.55;;;29.20;99.90;;;;;;5070778;28;20290;-78
2023/12/12 01:39:00;;;;;;;6.85;1.65;;;29.20;99.90;;;;;;5072355;28;20706;-77
2023/12/12 01:41:31;;;;;;;7.03;1.48;;;29.30;99.90;;;;;;5071788;28;20254;-77
2023/12/12 01:44:02;;;;;;;5.55;1.58;;;29.20;99.90;;;;;;5066313;28;20736;-77
2023/12/12 01:46:37;;;;;;;9.18;1.75;;;29.30;99.90;;;;;;5065534;28;20205;-78
2023/12/12 01:49:09;;;;;;;7.65;1.77;;;29.40;99.90;;;;;;5068304;28;20199;-77
2023/12/12 01:51:40;;;;;;;7.95;1.80;;;29.50;99.90;;;;;;5068378;28;20225;-77
2023/12/12 01:54:11;;;;;;;6.00;1.55;;;29.40;99.90;;;;;;5063813;28;20220;-77
2023/12/12 01:56:42;;;;;;;9.77;1.80;;;29.50;99.90;;;;;;5071770;28;20195;-76
2023/12/12 01:59:13;;;;;;;6.13;1.58;;;29.70;99.90;;;;;;5071756;28;20227;-76
2023/12/12 02:01:47;;;;;;;7.35;1.40;;;29.70;99.90;;;;;;5069495;28;20208;-77
2023/12/12 02:04:19;;;;;;;8.02;1.88;;;29.60;99.90;;;;;;5071504;28;20685;-76
2023/12/12 02:06:51;;;;;;;8.93;1.83;;;29.60;99.90;;;;;;5070645;28;20296;-82
2023/12/12 02:09:24;;;;;;;8.05;1.77;;;29.50;99.90;;;;;;5092006;28;20569;-77
2023/12/12 02:11:54;;;;;;;7.10;1.60;;;29.60;99.90;;;;;;5080610;28;20196;-76
2023/12/12 02:14:26;;;;;;;7.60;1.98;;;29.50;99.90;;;;;;5051786;28;20207;-75
2023/12/12 02:16:58;;;;;;;7.40;1.90;;;29.60;99.90;;;;;;5051600;28;20718;-76
2023/12/12 02:19:30;;;;;;;6.90;1.98;;;29.50;99.90;;;;;;5067407;28;20587;-76
2023/12/12 02:22:03;;;;;;;8.20;1.70;;;29.50;99.90;;;;;;5068311;28;20284;-76
2023/12/12 02:24:34;;;;;;;6.57;1.52;;;29.40;99.90;;;;;;5063371;28;20750;-75
2023/12/12 02:27:05;;;;;;;6.43;1.67;;;29.40;99.90;;;;;;5071097;28;20207;-75
2023/12/12 02:29:36;;;;;;;11.60;2.00;;;29.50;99.90;;;;;;5067332;28;20275;-76
2023/12/12 02:32:08;;;;;;;5.57;1.48;;;29.50;99.90;;;;;;5063797;28;20231;-75
2023/12/12 02:34:38;;;;;;;8.77;1.50;;;29.40;99.90;;;;;;5059528;28;20601;-75
2023/12/12 02:37:11;;;;;;;5.75;1.60;;;29.50;99.90;;;;;;5051095;28;20287;-76
2023/12/12 02:39:43;;;;;;;9.18;1.58;;;29.40;99.90;;;;;;5053010;28;20303;-76
2023/12/12 02:42:13;;;;;;;7.70;1.83;;;29.30;99.90;;;;;;5069668;28;20195;-77
2023/12/12 02:44:44;;;;;;;6.53;1.50;;;29.20;99.90;;;;;;5060343;28;20609;-76
2023/12/12 02:47:15;;;;;;;3.85;1.30;;;29.30;99.90;;;;;;5051050;28;20567;-75
2023/12/12 02:49:46;;;;;;;4.55;1.58;;;29.40;99.90;;;;;;5052545;28;20214;-75
2023/12/12 02:52:19;;;;;;;8.52;1.42;;;29.50;99.90;;;;;;5066475;28;20216;-75
2023/12/12 02:54:49;;;;;;;6.68;1.58;;;29.40;99.90;;;;;;5058100;28;20230;-75
2023/12/12 02:57:25;;;;;;;7.20;1.23;;;29.40;99.90;;;;;;5065173;28;20232;-79
2023/12/12 02:59:56;;;;;;;5.25;1.40;;;29.40;99.90;;;;;;5074853;28;20822;-74
2023/12/12 03:02:26;;;;;;;6.43;1.20;;;29.50;99.90;;;;;;5071003;28;20282;-76
2023/12/12 03:04:57;;;;;;;4.93;1.23;;;29.40;99.90;;;;;;5069070;28;20192;-77
2023/12/12 03:07:30;;;;;;;9.68;1.70;;;29.20;99.90;;;;;;5070329;28;20280;-76
2023/12/12 03:10:01;;;;;;;7.65;1.67;;;29.20;99.90;;;;;;5062945;28;20289;-76
2023/12/12 03:12:32;;;;;;;6.35;1.50;;;29.00;99.90;;;;;;5054297;28;20202;-76
2023/12/12 03:15:02;;;;;;;5.07;1.48;;;29.20;99.90;;;;;;5059725;28;20223;-75
2023/12/12 03:17:33;;;;;;;5.38;1.30;;;29.20;99.90;;;;;;5070598;28;20773;-75
2023/12/12 03:20:04;;;;;;;10.88;1.77;;;29.20;99.90;;;;;;5068645;28;20222;-75
2023/12/12 03:22:37;;;;;;;9.13;1.65;;;29.30;99.90;;;;;;5070360;28;20691;-75
2023/12/12 03:25:08;;;;;;;6.93;1.15;;;29.40;99.90;;;;;;5070056;28;20287;-75
2023/12/12 03:27:39;;;;;;;6.32;1.17;;;29.40;99.90;;;;;;5052895;28;20199;-76
2023/12/12 03:30:11;;;;;;;7.30;1.38;;;29.40;99.90;;;;;;5069005;28;20199;-75
2023/12/12 03:32:42;;;;;;;3.30;1.05;;;29.40;99.90;;;;;;5062462;28;20279;-75
2023/12/12 03:35:13;;;;;;;7.00;1.38;;;29.50;99.90;;;;;;5069662;28;20189;-75
2023/12/12 03:37:47;;;;;;;6.15;1.50;;;29.60;99.90;;;;;;5068956;28;20195;-75
2023/12/12 03:40:18;;;;;;;3.75;1.17;;;29.70;99.90;;;;;;5070048;28;20767;-75
2023/12/12 03:42:49;;;;;;;4.47;1.10;;;29.70;99.90;;;;;;5070045;28;20566;-75
2023/12/12 03:45:20;;;;;;;5.95;1.20;;;29.60;99.90;;;;;;5066338;28;20222;-76
2023/12/12 03:47:51;;;;;;;6.22;1.63;;;29.40;99.90;;;;;;5069782;28;20192;-76
2023/12/12 03:50:22;;;;;;;9.23;1.55;;;29.50;99.90;;;;;;5071054;28;20206;-76
2023/12/12 03:52:54;;;;;;;6.93;1.23;;;29.30;99.90;;;;;;5069432;28;20203;-76
2023/12/12 03:55:25;;;;;;;7.25;1.20;;;29.10;99.90;;;;;;5067435;28;20216;-77
2023/12/12 03:57:56;;;;;;;6.20;1.30;;;29.10;99.90;;;;;;5067600;28;20224;-76
2023/12/12 04:00:26;;;;;;;5.88;1.17;;;29.20;99.90;;;;;;5049881;28;20216;-77
2023/12/12 04:02:56;;;;;;;4.22;1.20;;;29.40;99.90;;;;;;5049423;28;20196;-78
2023/12/12 04:05:27;;;;;;;9.02;1.58;;;29.20;99.90;;;;;;5069983;28;20574;-77
2023/12/12 04:08:00;;;;;;;7.07;1.38;;;29.40;99.90;;;;;;5067279;28;20594;-79
2023/12/12 04:10:31;;;;;;;7.50;1.50;;;29.50;99.90;;;;;;5066238;28;20196;-81
2023/12/12 04:13:01;;;;;;;5.32;1.40;;;29.60;99.90;;;;;;5055876;28;20218;-83
2023/12/12 04:15:32;;;;;;;7.78;1.52;;;29.60;99.90;;;;;;5070733;28;20206;-78
2023/12/12 04:18:03;;;;;;;7.63;1.50;;;29.40;99.90;;;;;;5078497;28;20239;-77
2023/12/12 04:20:34;;;;;;;6.03;1.33;;;29.30;99.90;;;;;;5075722;28;20250;-77
2023/12/12 04:23:08;;;;;;;9.57;1.55;;;29.40;99.90;;;;;;5071649;28;20237;-79
2023/12/12 04:25:38;;;;;;;5.15;1.42;;;29.30;99.90;;;;;;5081188;28;20237;-78
2023/12/12 04:28:11;;;;;;;5.07;1.50;;;29.10;99.90;;;;;;5077822;28;20208;-77
2023/12/12 04:30:41;;;;;;;7.20;1.30;;;29.00;99.90;;;;;;5073794;28;20291;-78
2023/12/12 04:33:12;;;;;;;9.25;1.65;;;28.80;99.90;;;;;;5064995;28;20272;-78
2023/12/12 04:35:46;;;;;;;5.20;1.20;;;29.10;99.90;;;;;;5065703;28;20275;-77
2023/12/12 04:38:18;;;;;;;7.18;1.58;;;29.30;99.90;;;;;;5066961;28;20199;-77
2023/12/12 04:40:49;;;;;;;7.45;1.73;;;29.50;99.90;;;;;;5062835;28;20275;-77
2023/12/12 04:43:20;;;;;;;4.50;1.20;;;29.70;99.90;;;;;;5071574;28;20278;-76
2023/12/12 04:45:51;;;;;;;6.03;1.30;;;29.60;99.90;;;;;;5073275;28;20547;-76
2023/12/12 04:48:21;;;;;;;7.90;1.50;;;29.70;99.90;;;;;;5065561;28;20231;-76
2023/12/12 04:50:55;;;;;;;7.53;1.48;;;30.00;99.90;;;;;;5070644;28;20220;-76
2023/12/12 04:53:28;;;;;;;8.10;1.70;;;30.20;99.90;;;;;;5072999;28;20326;-76
2023/12/12 04:55:58;;;;;;;6.25;1.30;;;30.30;99.90;;;;;;5071285;28;20216;-76
2023/12/12 04:58:29;;;;;;;6.53;1.40;;;30.10;99.90;;;;;;5072872;28;20506;-76
2023/12/12 05:01:00;;;;;;;8.10;1.60;;;30.10;99.90;;;;;;5072943;28;20534;-77
2023/12/12 05:03:32;;;;;;;7.90;1.60;;;30.30;99.90;;;;;;5072138;28;20196;-76
2023/12/12 05:06:03;;;;;;;7.45;1.30;;;30.20;99.90;;;;;;5053588;28;20674;-76
2023/12/12 05:08:36;;;;;;;6.57;1.23;;;30.20;99.90;;;;;;5053528;28;20197;-76
2023/12/12 05:11:07;;;;;;;5.38;1.33;;;30.10;99.90;;;;;;5052822;28;20215;-75
2023/12/12 05:13:37;;;;;;;5.90;1.73;;;30.20;99.90;;;;;;5052983;28;20212;-76
2023/12/12 05:16:15;;;;;;;6.32;1.33;;;30.30;99.90;;;;;;5073167;28;20231;-75
2023/12/12 05:18:46;;;;;;;6.38;1.40;;;30.40;99.90;;;;;;5068175;28;20191;-76
2023/12/12 05:21:21;;;;;;;7.03;1.50;;;30.40;99.90;;;;;;5065784;28;20231;-76
2023/12/12 05:23:53;;;;;;;5.63;1.45;;;30.50;99.90;;;;;;5072402;28;20204;-76
2023/12/12 05:26:24;;;;;;;8.65;1.50;;;30.30;99.90;;;;;;5057980;28;20203;-75
2023/12/12 05:28:55;;;;;;;6.22;1.20;;;29.90;99.90;;;;;;5057087;28;20187;-76
2023/12/12 05:31:27;;;;;;;7.93;1.20;;;29.40;99.90;;;;;;5062898;28;20196;-75
2023/12/12 05:33:58;;;;;;;9.30;1.63;;;29.50;99.90;;;;;;5072070;28;20589;-75
2023/12/12 05:36:29;;;;;;;6.07;1.20;;;29.60;99.90;;;;;;5071410;28;20191;-76
2023/12/12 05:39:01;;;;;;;5.88;1.40;;;29.90;99.90;;;;;;5059215;28;20303;-76
2023/12/12 05:41:32;;;;;;;7.18;1.40;;;30.30;99.90;;;;;;5067881;28;20202;-75
2023/12/12 05:44:03;;;;;;;9.73;1.63;;;30.50;99.90;;;;;;5064840;28;20192;-75
2023/12/12 05:46:34;;;;;;;7.72;1.75;;;30.60;99.90;;;;;;5072526;28;20202;-75
2023/12/12 05:49:04;;;;;;;5.40;1.13;;;30.60;99.90;;;;;;5067297;28;20199;-75
2023/12/12 05:51:37;;;;;;;5.25;1.50;;;30.90;99.90;;;;;;5061092;28;20200;-76
2023/12/12 05:54:11;;;;;;;7.13;1.38;;;31.10;99.90;;;;;;5083760;28;20176;-75
2023/12/12 05:56:43;;;;;;;9.05;1.52;;;31.70;99.90;;;;;;5059929;28;20220;-76
2023/12/12 05:59:15;;;;;;;4.65;1.08;;;31.70;99.90;;;;;;5052322;28;20212;-75
2023/12/12 06:01:46;;;;;;;6.53;1.30;;;32.00;99.90;;;;;;5071877;28;20239;-75
2023/12/12 06:04:17;;;;;;;5.80;1.73;;;32.20;99.90;;;;;;5070696;28;20192;-75
2023/12/12 06:06:48;;;;;;;9.07;1.27;;;32.10;99.90;;;;;;5088973;28;20242;-75
2023/12/12 06:09:21;;;;;;;7.22;1.30;;;32.50;99.90;;;;;;5052061;28;20240;-75
2023/12/12 06:11:52;;;;;;;5.32;1.08;;;32.20;99.90;;;;;;5071250;28;20674;-75
2023/12/12 06:14:23;;;;;;;6.18;1.45;;;32.40;99.90;;;;;;5072145;28;20191;-75
2023/12/12 06:16:54;;;;;;;5.78;1.35;;;32.50;99.90;;;;;;5071390;28;20568;-75
2023/12/12 06:19:24;;;;;;;7.13;1.17;;;32.40;99.90;;;;;;5071552;28;20216;-75
2023/12/12 06:21:55;;;;;;;3.95;1.42;;;32.70;99.90;;;;;;5070398;28;20203;-74
2023/12/12 06:24:28;;;;;;;5.72;1.30;;;32.80;99.90;;;;;;5069231;28;20250;-75
2023/12/12 06:26:59;;;;;;;8.35;1.67;;;32.40;99.90;;;;;;5060648;28;20206;-75
2023/12/12 06:29:30;;;;;;;8.25;1.75;;;32.50;99.90;;;;;;5070844;28;20666;-75
2023/12/12 06:32:01;;;;;;;5.90;1.55;;;32.60;99.90;;;;;;5071262;28;20203;-75
2023/12/12 06:34:32;;;;;;;8.50;1.88;;;32.70;99.90;;;;;;5069386;28;20192;-75
2023/12/12 06:37:03;;;;;;;5.85;1.40;;;32.90;99.90;;;;;;5071678;28;20274;-75
2023/12/12 06:39:36;;;;;;;4.70;1.17;;;33.30;99.90;;;;;;5072115;28;20289;-75
2023/12/12 06:42:07;;;;;;;10.00;1.52;;;33.60;99.90;;;;;;5071007;28;20199;-76
2023/12/12 06:44:38;;;;;;;7.95;1.48;;;33.20;99.90;;;;;;5070062;28;20202;-76
2023/12/12 06:47:09;;;;;;;6.55;1.48;;;33.50;99.90;;;;;;5071060;28;20200;-76
2023/12/12 06:49:39;;;;;;;6.82;1.40;;;33.40;99.90;;;;;;5071100;28;20235;-76
2023/12/12 06:52:10;;;;;;;6.93;1.70;;;33.50;99.90;;;;;;5070820;28;20564;-76
2023/12/12 06:54:43;;;;;;;7.65;1.42;;;34.20;99.90;;;;;;5070750;28;20202;-76
2023/12/12 06:57:14;;;;;;;6.53;1.60;;;34.10;99.90;;;;;;5070537;28;20226;-76
2023/12/12 06:59:44;;;;;;;7.25;1.40;;;34.10;99.90;;;;;;5070672;28;20226;-76
2023/12/12 07:02:15;;;;;;;4.32;1.23;;;34.40;99.90;;;;;;5067802;28;20666;-76
2023/12/12 07:04:46;;;;;;;5.35;1.17;;;34.50;99.90;;;;;;5070106;28;20196;-76
2023/12/12 07:07:17;;;;;;;6.22;1.40;;;34.40;99.90;;;;;;5068680;28;20314;-76
2023/12/12 07:09:50;;;;;;;5.40;1.35;;;34.80;99.90;;;;;;5069905;28;20206;-77
2023/12/12 07:12:22;;;;;;;7.95;1.70;;;34.90;99.90;;;;;;5070306;28;20192;-76
2023/12/12 07:14:54;;;;;;;4.45;1.42;;;34.50;99.90;;;;;;5070507;28;20248;-75
2023/12/12 07:17:25;;;;;;;5.13;1.40;;;34.30;99.90;;;;;;5063195;28;20698;-75
2023/12/12 07:19:56;;;;;;;8.38;1.10;;;33.80;99.90;;;;;;5064903;28;20260;-75
2023/12/12 07:22:27;;;;;;;8.05;1.27;;;33.60;99.90;;;;;;5054228;28;20211;-75
2023/12/12 07:25:00;;;;;;;3.90;1.33;;;33.30;99.90;;;;;;5058034;28;20662;-75
2023/12/12 07:27:31;;;;;;;5.03;1.20;;;32.80;99.90;;;;;;5071211;28;20721;-75
2023/12/12 07:30:02;;;;;;;5.57;1.10;;;32.20;99.90;;;;;;5071626;28;20613;-75
2023/12/12 07:32:33;;;;;;;5.82;1.40;;;31.70;99.90;;;;;;5069112;28;20196;-75
2023/12/12 07:35:04;;;;;;;5.85;1.30;;;31.20;99.90;;;;;;5068076;28;20250;-75
2023/12/12 07:37:34;;;;;;;4.43;1.17;;;30.90;99.90;;;;;;5067395;28;20215;-76
2023/12/12 07:40:08;;;;;;;8.00;1.52;;;30.20;99.90;;;;;;5068446;28;20245;-74
2023/12/12 07:42:39;;;;;;;8.02;1.50;;;29.70;99.90;;;;;;5070279;28;20308;-74
2023/12/12 07:45:10;;;;;;;5.45;1.55;;;29.50;99.90;;;;;;5070238;28;20206;-75
2023/12/12 07:47:44;;;;;;;8.20;1.48;;;29.30;99.90;;;;;;5075749;28;20207;-75
2023/12/12 07:50:16;;;;;;;6.15;1.17;;;28.90;99.90;;;;;;5060203;28;20295;-74
2023/12/12 07:52:47;;;;;;;4.68;1.20;;;28.40;99.90;;;;;;5069922;28;20210;-75
2023/12/12 07:55:20;;;;;;;6.88;1.30;;;28.20;99.90;;;;;;5069900;28;20733;-75
2023/12/12 07:57:51;;;;;;;5.38;1.50;;;28.10;99.90;;;;;;5068458;28;20223;-75
2023/12/12 08:00:22;;;;;;;6.57;1.30;;;28.10;99.90;;;;;;5066959;28;20276;-75
2023/12/12 08:02:53;;;;;;;4.35;1.20;;;28.00;99.90;;;;;;5068645;28;20220;-75
2023/12/12 08:05:23;;;;;;;6.22;1.20;;;28.00;99.90;;;;;;5072356;28;20639;-75
2023/12/12 08:07:54;;;;;;;5.45;1.40;;;28.00;99.90;;;;;;5073114;28;20258;-76
2023/12/12 08:10:27;;;;;;;6.20;1.52;;;28.00;99.90;;;;;;5070451;28;20211;-76
2023/12/12 08:12:58;;;;;;;7.63;1.17;;;27.80;99.90;;;;;;5070252;28;20203;-75
2023/12/12 08:15:28;;;;;;;6.57;1.35;;;27.70;99.90;;;;;;5068473;28;20212;-76
2023/12/12 08:17:59;;;;;;;6.80;1.20;;;27.80;99.90;;;;;;5070012;28;20195;-75
2023/12/12 08:20:30;;;;;;;8.95;1.27;;;27.70;99.90;;;;;;5069763;28;20253;-76
2023/12/12 08:22:59;;;;;;;5.82;1.40;;;27.60;99.90;;;;;;5069740;28;20283;-75
2023/12/12 08:25:32;;;;;;;6.07;1.50;;;27.50;99.90;;;;;;5068258;28;20219;-75
2023/12/12 08:28:03;;;;;;;3.88;1.20;;;27.50;99.90;;;;;;5070647;28;20692;-75
2023/12/12 08:30:37;;;;;;;6.03;1.45;;;27.40;99.90;;;;;;5070355;28;20210;-75
2023/12/12 08:33:08;;;;;;;6.93;1.38;;;27.30;99.90;;;;;;5068895;28;20219;-75
2023/12/12 08:35:40;;;;;;;7.43;1.48;;;27.10;99.90;;;;;;5058565;28;20597;-75
2023/12/12 08:38:11;;;;;;;5.25;1.60;;;26.90;99.90;;;;;;5056965;28;20195;-75
2023/12/12 08:40:45;;;;;;;5.93;1.30;;;26.80;99.90;;;;;;5065587;28;20265;-76
2023/12/12 08:43:16;;;;;;;6.32;1.40;;;26.80;99.90;;;;;;5068181;28;20654;-76
2023/12/12 08:45:48;;;;;;;6.75;1.27;;;26.80;99.90;;;;;;5069683;28;20203;-75
2023/12/12 08:48:18;;;;;;;2.63;1.00;;;26.90;99.90;;;;;;5069390;28;20226;-75
2023/12/12 08:50:50;;;;;;;5.13;1.20;;;26.80;99.90;;;;;;5069625;28;20211;-75
2023/12/12 08:53:26;;;;;;;7.00;1.42;;;26.70;99.90;;;;;;5069903;28;20239;-75
2023/12/12 08:56:00;;;;;;;5.78;1.40;;;26.60;99.90;;;;;;5073180;28;20540;-75
2023/12/12 08:58:30;;;;;;;6.13;1.13;;;26.60;99.90;;;;;;5069750;28;20199;-75
2023/12/12 09:01:01;;;;;;;3.85;1.10;;;26.50;99.90;;;;;;5069202;28;20228;-76
2023/12/12 09:03:32;;;;;;;6.72;1.55;;;26.40;99.90;;;;;;5070597;28;20275;-75
2023/12/12 09:06:03;;;;;;;6.32;1.73;;;26.40;99.90;;;;;;5070339;28;20231;-75
2023/12/12 09:08:34;;;;;;;4.65;1.40;;;26.50;99.90;;;;;;5071368;28;20753;-75
2023/12/12 09:11:07;;;;;;;4.70;1.15;;;26.40;99.90;;;;;;5068928;28;20222;-75
2023/12/12 09:13:38;;;;;;;7.13;1.35;;;26.30;99.90;;;;;;5072172;28;20212;-75
2023/12/12 09:16:09;;;;;;;5.72;1.17;;;26.30;99.90;;;;;;5071866;28;20433;-75
2023/12/12 09:18:40;;;;;;;9.13;1.60;;;26.20;99.90;;;;;;5071828;28;20208;-75
2023/12/12 09:21:11;;;;;;;4.95;1.15;;;26.20;99.90;;;;;;5073194;28;20247;-75
2023/12/12 09:23:46;;;;;;;5.05;1.15;;;26.10;99.90;;;;;;5078018;28;20212;-75
2023/12/12 09:26:19;;;;;;;5.38;1.20;;;26.10;99.90;;;;;;5070193;28;20196;-75
2023/12/12 09:28:50;;;;;;;4.55;1.20;;;26.10;99.90;;;;;;5054550;28;20204;-76
2023/12/12 09:31:29;;;;;;;3.67;1.30;;;26.10;99.90;;;;;;5071876;28;20744;-76
2023/12/12 09:34:00;;;;;;;3.40;0.85;;;26.10;99.90;;;;;;5067611;28;20294;-75
2023/12/12 09:36:30;;;;;;;4.40;1.15;;;26.10;99.90;;;;;;5058585;28;20203;-75
2023/12/12 09:39:06;;;;;;;4.30;1.02;;;26.10;99.90;;;;;;5071885;28;20246;-75
2023/12/12 09:41:39;;;;;;;4.78;1.20;;;26.10;99.90;;;;;;5072263;28;20644;-75
2023/12/12 09:44:11;;;;;;;5.80;1.05;;;26.10;99.90;;;;;;5071735;28;20645;-75
2023/12/12 09:46:44;;;;;;;5.80;1.23;;;26.00;99.90;;;;;;5071000;28;20275;-75
2023/12/12 09:49:15;;;;;;;5.35;1.33;;;26.00;99.90;;;;;;5065100;28;20193;-75
2023/12/12 09:51:46;;;;;;;6.30;1.23;;;26.00;99.90;;;;;;5065149;28;20685;-75
2023/12/12 09:54:19;;;;;;;3.55;1.27;;;25.90;99.90;;;;;;5071065;28;20202;-75
2023/12/12 09:56:54;;;;;;;6.40;1.25;;;26.00;99.90;;;;;;5070794;28;20198;-75
2023/12/12 09:59:25;;;;;;;8.48;1.40;;;26.00;99.90;;;;;;5065202;28;20524;-75
2023/12/12 10:01:58;;;;;;;6.30;1.10;;;26.00;99.90;;;;;;5072232;28;20224;-76
2023/12/12 10:04:30;;;;;;;5.15;1.17;;;25.90;99.90;;;;;;5072505;28;20663;-76
2023/12/12 10:07:05;;;;;;;4.20;1.13;;;25.90;99.90;;;;;;5072972;28;20222;-76
2023/12/12 10:09:36;;;;;;;6.18;1.25;;;25.90;99.90;;;;;;5071748;28;20195;-76
2023/12/12 10:12:10;;;;;;;6.38;1.30;;;26.00;99.90;;;;;;5072138;28;20200;-76
2023/12/12 10:14:41;;;;;;;4.57;1.30;;;25.90;99.90;;;;;;5072466;28;20283;-75
2023/12/12 10:17:13;;;;;;;5.57;1.30;;;25.90;99.90;;;;;;5070965;28;20234;-76
2023/12/12 10:19:44;;;;;;;3.05;1.10;;;25.90;99.90;;;;;;5072098;28;20207;-76
2023/12/12 10:22:15;;;;;;;5.93;1.60;;;25.90;99.90;;;;;;5051998;28;20695;-76
2023/12/12 10:24:45;;;;;;;8.40;1.30;;;26.00;99.90;;;;;;5054541;28;20207;-76
2023/12/12 10:27:23;;;;;;;5.43;1.30;;;25.90;99.90;;;;;;5052161;28;20219;-77
2023/12/12 10:29:54;;;;;;;4.95;1.10;;;25.90;99.90;;;;;;5052021;28;20201;-76
2023/12/12 10:32:26;;;;;;;6.90;1.45;;;25.90;99.90;;;;;;5051620;28;20221;-76
2023/12/12 10:34:57;;;;;;;6.50;1.25;;;25.90;99.90;;;;;;5063395;28;20307;-80
2023/12/12 10:37:29;;;;;;;8.05;1.55;;;25.90;99.90;;;;;;5068226;28;20224;-77
2023/12/12 10:40:15;;;;;;;4.50;1.40;;;25.90;99.90;;;;;;5055492;28;20227;-76
2023/12/12 10:42:48;;;;;;;5.40;1.50;;;25.80;99.90;;;;;;5069320;28;20357;-76
2023/12/12 10:45:20;;;;;;;5.93;1.60;;;25.80;99.90;;;;;;5067049;28;20212;-77
2023/12/12 10:47:53;;;;;;;4.32;1.23;;;25.80;99.90;;;;;;5057011;28;20215;-77
2023/12/12 10:50:24;;;;;;;4.97;1.30;;;25.80;99.90;;;;;;5061533;28;20192;-76
2023/12/12 10:52:57;;;;;;;6.63;1.25;;;25.80;99.90;;;;;;5066361;28;20193;-76
2023/12/12 10:55:29;;;;;;;4.75;1.10;;;25.70;99.90;;;;;;5070151;28;20588;-76
2023/12/12 10:58:03;;;;;;;5.65;1.33;;;25.80;99.90;;;;;;5069679;28;20544;-76
2023/12/12 11:00:37;;;;;;;3.90;1.20;;;25.70;99.90;;;;;;5071187;28;20198;-76
2023/12/12 11:03:09;;;;;;;6.55;1.33;;;25.70;99.90;;;;;;5069686;28;20670;-76
2023/12/12 11:05:40;;;;;;;4.68;1.10;;;25.70;99.90;;;;;;5052838;28;20191;-76
2023/12/12 11:08:12;;;;;;;5.20;1.30;;;25.70;99.90;;;;;;5060619;28;20393;-76
2023/12/12 11:10:43;;;;;;;5.38;1.30;;;25.70;99.90;;;;;;5051037;28;20212;-76
2023/12/12 11:13:19;;;;;;;3.72;1.10;;;25.70;99.90;;;;;;5071312;28;20188;-76
2023/12/12 11:15:51;;;;;;;5.63;1.27;;;25.70;99.90;;;;;;5069835;28;20231;-76
2023/12/12 11:18:22;;;;;;;3.65;1.00;;;25.70;99.90;;;;;;5071211;28;20210;-76
2023/12/12 11:20:53;;;;;;;5.82;1.10;;;25.60;99.90;;;;;;5066005;28;20261;-75
2023/12/12 11:24:01;;;;;;;4.90;1.20;;;25.60;99.90;;;;;;5060591;28;20199;-76
2023/12/12 11:26:33;;;;;;;5.40;1.25;;;25.60;99.90;;;;;;5050318;28;20223;-76
2023/12/12 11:29:08;;;;;;;2.88;1.17;;;25.60;99.90;;;;;;5071190;28;20283;-76
2023/12/12 11:31:39;;;;;;;7.25;1.35;;;25.60;99.90;;;;;;5068470;28;20234;-76
2023/12/12 11:34:12;;;;;;;4.75;1.13;;;25.50;99.90;;;;;;5070698;28;20210;-76
2023/12/12 11:36:54;;;;;;;5.05;1.10;;;25.60;99.90;;;;;;5070610;28;20192;-76
2023/12/12 11:39:31;;;;;;;4.22;1.23;;;25.50;99.90;;;;;;5069663;28;20188;-75
2023/12/12 11:42:05;;;;;;;4.65;1.30;;;25.50;99.90;;;;;;5056267;28;20556;-75
2023/12/12 11:44:51;;;;;;;3.40;1.00;;;25.50;99.90;;;;;;5071111;28;20245;-75
2023/12/12 11:47:24;;;;;;;6.10;1.33;;;25.50;99.90;;;;;;5050279;28;20200;-75
2023/12/12 11:50:29;;;;;;;4.70;1.10;;;25.40;99.90;;;;;;5054276;28;20215;-75
2023/12/12 11:53:01;;;;;;;4.68;1.20;;;25.40;99.90;;;;;;5063391;28;20206;-75
2023/12/12 11:55:35;;;;;;;8.20;1.25;;;25.40;99.90;;;;;;5065878;28;20188;-75
2023/12/12 11:58:07;;;;;;;3.65;0.85;;;25.40;99.90;;;;;;5069579;28;20295;-75
2023/12/12 12:00:41;;;;;;;5.95;1.20;;;25.40;99.90;;;;;;5065066;28;20195;-75
2023/12/12 12:03:12;;;;;;;5.13;1.27;;;25.50;99.90;;;;;;5065367;28;20195;-75
2023/12/12 12:05:43;;;;;;;6.10;1.30;;;25.40;99.90;;;;;;5068374;28;20267;-76
2023/12/12 12:08:14;;;;;;;4.32;1.10;;;25.40;99.90;;;;;;5067003;28;20611;-76
2023/12/12 12:10:56;;;;;;;6.15;1.40;;;25.30;99.90;;;;;;5068839;28;20267;-76
2023/12/12 12:13:38;;;;;;;4.97;1.45;;;25.30;99.90;;;;;;5060962;28;20970;-76
2023/12/12 12:16:11;;;;;;;3.55;1.02;;;25.30;99.90;;;;;;5069718;28;20753;-75
2023/12/12 12:18:42;;;;;;;4.85;1.05;;;25.20;99.90;;;;;;5058166;28;20658;-75
2023/12/12 12:21:14;;;;;;;4.22;1.13;;;25.30;99.90;;;;;;5086636;28;20231;-75
2023/12/12 12:23:44;;;;;;;7.07;1.20;;;25.20;99.90;;;;;;5069478;28;20199;-75
2023/12/12 12:26:15;;;;;;;6.20;1.20;;;25.30;99.90;;;;;;5070121;28;20195;-76
2023/12/12 12:28:46;;;;;;;8.02;1.20;;;25.20;99.90;;;;;;5069588;28;20678;-76
2023/12/12 12:31:30;;;;;;;5.65;1.35;;;25.20;99.90;;;;;;5067146;28;20205;-75
2023/12/12 12:34:01;;;;;;;4.10;1.10;;;25.20;99.90;;;;;;5050793;28;20303;-76
2023/12/12 12:36:42;;;;;;;5.72;1.48;;;25.20;99.90;;;;;;5066223;28;20204;-76
2023/12/12 12:39:12;;;;;;;5.82;1.25;;;25.20;99.90;;;;;;5065274;28;20193;-76
2023/12/12 12:41:46;;;;;;;5.65;0.95;;;25.20;99.90;;;;;;5067990;28;20215;-76
2023/12/12 12:44:17;;;;;;;8.65;1.30;;;25.10;99.90;;;;;;5060888;28;20280;-76
2023/12/12 12:46:56;;;;;;;5.20;1.45;;;25.20;99.90;;;;;;5054065;28;20283;-76
2023/12/12 12:49:27;;;;;;;3.75;1.20;;;25.10;99.90;;;;;;5064420;28;20235;-76
2023/12/12 12:51:58;;;;;;;5.45;1.50;;;25.10;99.90;;;;;;5054033;28;20189;-76
2023/12/12 12:54:28;;;;;;;4.45;1.40;;;25.20;99.90;;;;;;5069004;28;20204;-77
2023/12/12 12:56:59;;;;;;;4.70;1.40;;;25.10;99.90;;;;;;5072854;28;20210;-76
2023/12/12 12:59:31;;;;;;;6.00;1.17;;;25.10;99.90;;;;;;5073821;28;20194;-76
2023/12/12 13:02:03;;;;;;;4.43;1.30;;;25.10;99.90;;;;;;5073850;28;20223;-77
2023/12/12 13:04:34;;;;;;;2.83;1.02;;;25.10;99.90;;;;;;5074303;28;20581;-76
2023/12/12 13:07:05;;;;;;;5.80;1.30;;;25.00;99.90;;;;;;5074013;28;20218;-76
2023/12/12 13:09:39;;;;;;;3.63;1.13;;;25.00;99.90;;;;;;5066358;28;20655;-76